Time;durP1;ratioP1;P1;durP2;ratioP2;P2;SDS_P1;SDS_P2;PMS_P1;PMS_P2;Temp;Humidity;BMP_temperature;BMP_pressure;BME280_temperature;BME280_humidity;BME280_pressure;Samples;Min_cycle;Max_cycle;Signal;HPM_P1;HPM_P2
2023/05/20 00:01:49;;;;;;;;;;;;;;;15.71;93.30;101308.91;5002760;28;19924;-84
2023/05/20 00:04:16;;;;;;;;;;;;;;;15.71;92.95;101308.06;5006838;28;19928;-82
2023/05/20 00:06:43;;;;;;;;;;;;;;;15.70;93.19;101306.38;5041056;28;19925;-83
2023/05/20 00:09:10;;;;;;;;;;;;;;;15.70;93.32;101314.41;5018212;28;20435;-81
2023/05/20 00:11:41;;;;;;;;;;;;;;;15.66;93.57;101313.00;5019655;28;20236;-83
2023/05/20 00:14:11;;;;;;;;;;;;;;;15.64;94.02;101313.16;5017708;28;20547;-83
2023/05/20 00:16:37;;;;;;;;;;;;;;;15.68;93.33;101313.66;5018437;28;19929;-82
2023/05/20 00:19:12;;;;;;;;;;;;;;;15.62;93.88;101314.28;5021477;28;19977;-82
2023/05/20 00:21:38;;;;;;;;;;;;;;;15.62;94.15;101315.13;5032434;28;20403;-84
2023/05/20 00:24:08;;;;;;;;;;;;;;;15.17;93.92;101236.59;5010687;28;20424;-83
2023/05/20 00:26:35;;;;;;;;;;;;;;;15.64;93.37;101309.63;4999318;28;19932;-83
2023/05/20 00:29:02;;;;;;;;;;;;;;;15.62;93.50;101303.59;4991392;28;20436;-82
2023/05/20 00:31:28;;;;;;;;;;;;;;;15.65;92.86;101304.13;5000884;28;20244;-83
2023/05/20 00:33:55;;;;;;;;;;;;;;;15.59;93.14;101300.22;4960226;28;19938;-81
2023/05/20 00:36:25;;;;;;;;;;;;;;;15.63;92.80;101300.75;5012983;28;19936;-82
2023/05/20 00:38:54;;;;;;;;;;;;;;;15.01;92.79;101209.66;5014089;28;20369;-82
2023/05/20 00:41:27;;;;;;;;;;;;;;;15.64;92.54;101296.25;5039668;28;19947;-79
2023/05/20 00:43:56;;;;;;;;;;;;;;;15.27;92.91;101241.03;5019880;28;19999;-83
2023/05/20 00:46:28;;;;;;;;;;;;;;;15.29;92.77;101233.69;5018800;28;19950;-83
2023/05/20 00:48:55;;;;;;;;;;;;;;;15.50;93.58;101274.38;5008600;28;20293;-83
2023/05/20 00:51:21;;;;;;;;;;;;;;;15.48;93.58;101268.31;4987172;28;19925;-82
2023/05/20 00:53:50;;;;;;;;;;;;;;;15.12;93.69;101222.84;4977065;28;20350;-82
2023/05/20 00:56:19;;;;;;;;;;;;;;;15.45;93.61;101276.66;4977123;28;19971;-83
2023/05/20 00:58:52;;;;;;;;;;;;;;;15.10;94.10;101224.81;4986245;28;19935;-83
2023/05/20 01:01:19;;;;;;;;;;;;;;;15.44;93.82;101269.63;4996151;28;20019;-82
2023/05/20 01:03:52;;;;;;;;;;;;;;;15.10;94.42;101214.13;4999137;28;19951;-82
2023/05/20 01:06:19;;;;;;;;;;;;;;;15.38;94.47;101262.19;5014721;28;20254;-82
2023/05/20 01:08:48;;;;;;;;;;;;;;;15.37;94.70;101257.84;5027011;28;19924;-82
2023/05/20 01:11:30;;;;;;;;;;;;;;;15.46;94.21;101261.44;5035415;28;19924;-81
2023/05/20 01:14:00;;;;;;;;;;;;;;;15.41;93.84;101261.91;5012008;28;19925;-82
2023/05/20 01:16:27;;;;;;;;;;;;;;;15.41;93.98;101269.91;5022024;28;19934;-82
2023/05/20 01:18:56;;;;;;;;;;;;;;;15.36;94.44;101261.50;5013558;28;20141;-82
2023/05/20 01:21:26;;;;;;;;;;;;;;;15.35;94.36;101265.19;5017505;28;20377;-81
2023/05/20 01:23:52;;;;;;;;;;;;;;;15.41;93.88;101264.56;5016949;28;19997;-82
2023/05/20 01:26:20;;;;;;;;;;;;;;;15.44;93.83;101269.63;5020886;28;19929;-81
2023/05/20 01:28:49;;;;;;;;;;;;;;;15.42;94.09;101260.91;4989747;28;19952;-82
2023/05/20 01:31:22;;;;;;;;;;;;;;;15.41;94.09;101259.22;5000036;28;19933;-82
2023/05/20 01:33:57;;;;;;;;;;;;;;;15.38;94.40;101256.84;5006481;28;20326;-82
2023/05/20 01:36:25;;;;;;;;;;;;;;;15.39;94.13;101246.00;5023616;28;20196;-81
2023/05/20 01:38:55;;;;;;;;;;;;;;;15.38;93.77;101243.47;5024255;28;20061;-81
2023/05/20 01:41:23;;;;;;;;;;;;;;;15.36;94.38;101245.47;5016332;28;20321;-81
2023/05/20 01:43:54;;;;;;;;;;;;;;;15.35;94.44;101241.13;5015572;28;19990;-82
2023/05/20 01:46:26;;;;;;;;;;;;;;;15.38;93.93;101238.97;5022911;28;19983;-81
2023/05/20 01:48:54;;;;;;;;;;;;;;;15.39;93.91;101231.81;5004548;28;19925;-80
2023/05/20 01:51:21;;;;;;;;;;;;;;;15.39;94.06;101231.81;4989057;28;20016;-82
2023/05/20 01:53:47;;;;;;;;;;;;;;;15.41;93.46;101232.47;4972355;28;19932;-82
2023/05/20 01:56:16;;;;;;;;;;;;;;;15.42;92.96;101234.16;4980349;28;19940;-81
2023/05/20 01:58:45;;;;;;;;;;;;;;;15.35;93.63;101227.75;4976938;28;20015;-82
2023/05/20 02:01:11;;;;;;;;;;;;;;;15.38;93.26;101222.06;4967220;28;20024;-81
2023/05/20 02:03:38;;;;;;;;;;;;;;;15.34;93.01;101228.72;4991616;28;19982;-81
2023/05/20 02:06:06;;;;;;;;;;;;;;;14.98;93.33;101167.19;5014158;28;19931;-83
2023/05/20 02:08:33;;;;;;;;;;;;;;;15.30;93.40;101216.66;5012246;28;19929;-82
2023/05/20 02:11:03;;;;;;;;;;;;;;;15.24;94.08;101211.91;4986978;28;20392;-82
2023/05/20 02:13:34;;;;;;;;;;;;;;;15.26;93.75;101212.59;4987225;28;20366;-81
2023/05/20 02:16:02;;;;;;;;;;;;;;;15.33;93.42;101203.81;4998251;28;19931;-81
2023/05/20 02:18:31;;;;;;;;;;;;;;;15.36;92.71;101208.00;4994615;28;20202;-82
2023/05/20 02:21:02;;;;;;;;;;;;;;;15.26;94.17;101197.38;4989006;28;20550;-81
2023/05/20 02:23:33;;;;;;;;;;;;;;;15.22;94.11;101201.38;4991987;28;20119;-82
2023/05/20 02:26:00;;;;;;;;;;;;;;;15.25;93.88;101184.19;4978392;28;20267;-81
2023/05/20 02:28:26;;;;;;;;;;;;;;;15.24;94.56;101195.84;4989643;28;20396;-82
2023/05/20 02:30:53;;;;;;;;;;;;;;;15.21;94.79;101188.13;4981082;28;19925;-81
2023/05/20 02:33:20;;;;;;;;;;;;;;;15.24;94.40;101199.34;4965914;28;20219;-83
2023/05/20 02:35:46;;;;;;;;;;;;;;;15.24;94.26;101193.19;4987336;28;20143;-82
2023/05/20 02:38:13;;;;;;;;;;;;;;;15.22;94.27;101187.13;5006796;28;20051;-83
2023/05/20 02:40:42;;;;;;;;;;;;;;;15.21;94.05;101185.47;5025487;28;20043;-83
2023/05/20 02:43:09;;;;;;;;;;;;;;;15.24;94.23;101179.81;5014236;28;19924;-81
2023/05/20 02:45:36;;;;;;;;;;;;;;;15.20;94.33;101178.44;5007709;28;19936;-81
2023/05/20 02:48:05;;;;;;;;;;;;;;;15.18;94.19;101170.56;4998579;28;20414;-81
2023/05/20 02:50:32;;;;;;;;;;;;;;;15.19;94.61;101174.91;4998251;28;19928;-83
2023/05/20 02:53:05;;;;;;;;;;;;;;;14.89;94.40;101119.97;4979771;28;20012;-82
2023/05/20 02:55:41;;;;;;;;;;;;;;;15.18;94.44;101174.06;4984735;28;19929;-82
2023/05/20 02:58:13;;;;;;;;;;;;;;;15.20;94.50;101167.75;4986941;28;20041;-82
2023/05/20 03:00:40;;;;;;;;;;;;;;;15.26;94.16;101164.44;4994665;28;20355;-82
2023/05/20 03:03:07;;;;;;;;;;;;;;;15.30;93.37;101172.03;4975334;28;20382;-83
2023/05/20 03:05:36;;;;;;;;;;;;;;;15.30;92.94;101165.84;5005291;28;20147;-82
2023/05/20 03:08:08;;;;;;;;;;;;;;;15.26;93.46;101161.78;4981239;28;19936;-82
2023/05/20 03:10:38;;;;;;;;;;;;;;;15.27;92.85;101160.81;4978002;28;19925;-82
2023/05/20 03:13:10;;;;;;;;;;;;;;;15.30;93.18;101163.16;5017317;28;20203;-82
2023/05/20 03:15:37;;;;;;;;;;;;;;;15.31;92.52;101167.50;5002319;28;19957;-81
2023/05/20 03:18:04;;;;;;;;;;;;;;;15.31;92.15;101167.50;4999250;28;20345;-81
2023/05/20 03:20:31;;;;;;;;;;;;;;;15.27;93.00;101166.16;4997787;28;20529;-84
2023/05/20 03:22:58;;;;;;;;;;;;;;;15.24;93.11;101166.44;4993698;28;19935;-80
2023/05/20 03:25:25;;;;;;;;;;;;;;;15.30;92.46;101172.03;4997570;28;20228;-82
2023/05/20 03:27:55;;;;;;;;;;;;;;;15.31;92.02;101167.50;4991084;28;20289;-82
2023/05/20 03:30:24;;;;;;;;;;;;;;;15.25;93.02;101162.78;4992189;28;20383;-83
2023/05/20 03:32:52;;;;;;;;;;;;;;;15.31;92.54;101154.97;5008435;28;20142;-83
2023/05/20 03:35:21;;;;;;;;;;;;;;;15.29;92.12;101150.75;4973785;28;19971;-84
2023/05/20 03:37:50;;;;;;;;;;;;;;;15.29;92.37;101156.97;4997753;28;19925;-82
2023/05/20 03:40:17;;;;;;;;;;;;;;;15.24;92.53;101148.53;4972241;28;19947;-83
2023/05/20 03:42:43;;;;;;;;;;;;;;;15.17;93.29;101151.00;5007638;28;20014;-83
2023/05/20 03:45:10;;;;;;;;;;;;;;;15.15;93.76;101158.34;5006815;28;19951;-82
2023/05/20 03:47:36;;;;;;;;;;;;;;;15.15;93.70;101150.31;4975494;28;20323;-82
2023/05/20 03:50:03;;;;;;;;;;;;;;;15.12;93.70;101147.97;4977086;28;19933;-82
2023/05/20 03:52:33;;;;;;;;;;;;;;;15.14;93.96;101150.47;4967804;28;20310;-83
2023/05/20 03:55:11;;;;;;;;;;;;;;;15.10;94.01;101149.94;4927689;28;19968;-83
2023/05/20 03:57:40;;;;;;;;;;;;;;;15.15;93.98;101149.50;4961433;28;20048;-80
2023/05/20 04:00:10;;;;;;;;;;;;;;;15.12;94.44;101145.28;4963664;28;19932;-81
2023/05/20 04:02:37;;;;;;;;;;;;;;;15.21;93.28;101150.69;4982310;28;19952;-80
2023/05/20 04:05:04;;;;;;;;;;;;;;;15.17;93.59;101145.66;5012871;28;20437;-82
2023/05/20 04:07:31;;;;;;;;;;;;;;;15.21;93.16;101151.53;4992245;28;20024;-83
2023/05/20 04:09:58;;;;;;;;;;;;;;;15.26;93.19;101156.44;4988845;28;20340;-83
2023/05/20 04:12:29;;;;;;;;;;;;;;;15.17;93.31;101160.88;5010883;28;19928;-83
2023/05/20 04:15:00;;;;;;;;;;;;;;;15.20;93.43;101159.72;5007224;28;20019;-80
2023/05/20 04:17:29;;;;;;;;;;;;;;;14.87;94.06;101093.41;5003130;28;19929;-83
2023/05/20 04:20:00;;;;;;;;;;;;;;;15.11;94.05;101140.91;5009100;28;20372;-83
2023/05/20 04:22:30;;;;;;;;;;;;;;;15.21;93.80;101145.34;5019695;28;19925;-83
2023/05/20 04:25:02;;;;;;;;;;;;;;;14.89;94.11;101093.25;5026424;28;20402;-82
2023/05/20 04:27:30;;;;;;;;;;;;;;;15.21;93.76;101140.00;5007458;28;20366;-84
2023/05/20 04:30:01;;;;;;;;;;;;;;;15.22;93.49;101136.31;5015385;28;19932;-82
2023/05/20 04:32:30;;;;;;;;;;;;;;;15.16;94.41;101138.63;4991183;28;20019;-82
2023/05/20 04:35:01;;;;;;;;;;;;;;;14.90;95.68;101100.25;4987357;28;20395;-82
2023/05/20 04:37:28;;;;;;;;;;;;;;;15.09;95.94;101137.53;5023062;28;19925;-82
2023/05/20 04:39:58;;;;;;;;;;;;;;;15.12;95.67;101137.25;4992439;28;19933;-83
2023/05/20 04:42:25;;;;;;;;;;;;;;;15.08;95.91;101135.88;5017353;28;20237;-82
2023/05/20 04:44:52;;;;;;;;;;;;;;;15.18;95.55;101135.81;5015457;28;20011;-81
2023/05/20 04:47:18;;;;;;;;;;;;;;;15.17;94.93;101126.94;5017796;28;19956;-81
2023/05/20 04:49:45;;;;;;;;;;;;;;;15.14;95.22;101124.56;4991468;28;20366;-82
2023/05/20 04:52:12;;;;;;;;;;;;;;;15.14;96.27;101127.22;4996573;28;19925;-81
2023/05/20 04:54:39;;;;;;;;;;;;;;;15.14;96.16;101124.56;4998695;28;19929;-82
2023/05/20 04:57:06;;;;;;;;;;;;;;;15.17;95.72;101121.59;4993659;28;19926;-83
2023/05/20 04:59:34;;;;;;;;;;;;;;;15.16;95.65;101119.91;4988250;28;19925;-83
2023/05/20 05:02:04;;;;;;;;;;;;;;;15.18;96.25;101115.25;4987367;28;19928;-83
2023/05/20 05:04:33;;;;;;;;;;;;;;;14.86;95.52;101064.16;5021823;28;19925;-82
2023/05/20 05:07:01;;;;;;;;;;;;;;;15.20;95.71;101116.94;5013916;28;20137;-82
2023/05/20 05:09:28;;;;;;;;;;;;;;;15.25;95.23;101114.63;5014155;28;20016;-79
2023/05/20 05:11:55;;;;;;;;;;;;;;;15.25;95.53;101110.13;5037939;28;19930;-81
2023/05/20 05:14:22;;;;;;;;;;;;;;;15.24;95.21;101107.59;5019858;28;19932;-80
2023/05/20 05:16:50;;;;;;;;;;;;;;;15.27;95.23;101107.31;5022218;28;20358;-80
2023/05/20 05:19:21;;;;;;;;;;;;;;;15.38;94.11;101110.53;5006150;28;19931;-83
2023/05/20 05:21:48;;;;;;;;;;;;;;;15.33;94.52;101109.34;4996350;28;20271;-82
2023/05/20 05:24:15;;;;;;;;;;;;;;;15.34;95.10;101097.63;5008635;28;20369;-82
2023/05/20 05:26:41;;;;;;;;;;;;;;;15.32;94.75;101107.69;4994665;28;19935;-81
2023/05/20 05:29:08;;;;;;;;;;;;;;;15.26;96.00;101108.28;5015430;28;20610;-82
2023/05/20 05:31:37;;;;;;;;;;;;;;;15.24;96.69;101110.25;5003230;28;20129;-81
2023/05/20 05:34:05;;;;;;;;;;;;;;;15.28;96.94;101117.81;4999536;28;20375;-82
2023/05/20 05:36:32;;;;;;;;;;;;;;;15.26;96.46;101110.97;5005079;28;20304;-82
2023/05/20 05:39:00;;;;;;;;;;;;;;;15.28;96.24;101117.00;4997765;28;20036;-81
2023/05/20 05:41:27;;;;;;;;;;;;;;;15.26;96.14;101117.13;5002556;28;20180;-82
2023/05/20 05:43:56;;;;;;;;;;;;;;;15.32;96.21;101118.38;5000404;28;19929;-82
2023/05/20 05:46:23;;;;;;;;;;;;;;;15.34;95.88;101113.69;4999887;28;20015;-82
2023/05/20 05:48:50;;;;;;;;;;;;;;;15.35;95.94;101104.69;4989931;28;19933;-82
2023/05/20 05:51:17;;;;;;;;;;;;;;;15.33;96.31;101110.19;4998544;28;20216;-83
2023/05/20 05:53:47;;;;;;;;;;;;;;;15.36;96.76;101111.69;4991535;28;20442;-83
2023/05/20 05:56:15;;;;;;;;;;;;;;;15.35;97.01;101110.03;4981783;28;20319;-83
2023/05/20 05:58:47;;;;;;;;;;;;;;;15.39;96.62;101108.72;4997108;28;19928;-83
2023/05/20 06:01:13;;;;;;;;;;;;;;;15.44;96.20;101106.44;5005168;28;20031;-82
2023/05/20 06:03:42;;;;;;;;;;;;;;;15.44;96.21;101110.91;4984319;28;19990;-81
2023/05/20 06:06:11;;;;;;;;;;;;;;;15.45;96.41;101117.97;4983087;28;19933;-82
2023/05/20 06:08:38;;;;;;;;;;;;;;;15.45;96.56;101121.47;4976401;28;19988;-82
2023/05/20 06:11:05;;;;;;;;;;;;;;;15.44;97.16;101125.16;4991383;28;19925;-81
2023/05/20 06:13:35;;;;;;;;;;;;;;;15.13;97.41;101074.75;5001148;28;20027;-81
2023/05/20 06:16:07;;;;;;;;;;;;;;;15.47;97.13;101130.19;4995009;28;19935;-81
2023/05/20 06:18:36;;;;;;;;;;;;;;;15.47;97.39;101127.50;4997600;28;19932;-81
2023/05/20 06:21:03;;;;;;;;;;;;;;;15.49;96.46;101125.53;4977376;28;19935;-81
2023/05/20 06:23:30;;;;;;;;;;;;;;;15.55;96.35;101116.84;5000979;28;20047;-81
2023/05/20 06:25:57;;;;;;;;;;;;;;;15.56;96.15;101117.72;4999334;28;19925;-82
2023/05/20 06:28:31;;;;;;;;;;;;;;;15.57;96.48;101117.56;4994869;28;19929;-82
2023/05/20 06:31:02;;;;;;;;;;;;;;;15.58;96.95;101121.91;5000059;28;19932;-81
2023/05/20 06:33:29;;;;;;;;;;;;;;;15.57;96.97;101130.94;4992047;28;20378;-82
2023/05/20 06:35:57;;;;;;;;;;;;;;;15.56;96.92;101118.56;5013742;28;19928;-82
2023/05/20 06:38:24;;;;;;;;;;;;;;;15.57;96.75;101132.78;4996482;28;19968;-81
2023/05/20 06:40:50;;;;;;;;;;;;;;;15.56;97.11;101129.25;4996922;28;20704;-82
2023/05/20 06:43:18;;;;;;;;;;;;;;;15.56;97.53;101134.63;5005082;28;19935;-82
2023/05/20 06:45:44;;;;;;;;;;;;;;;15.56;97.95;101129.25;4978942;28;20023;-80
2023/05/20 06:48:13;;;;;;;;;;;;;;;15.57;97.97;101130.94;5002002;28;20330;-83
2023/05/20 06:50:40;;;;;;;;;;;;;;;15.59;97.93;101136.97;5019691;28;19928;-80
2023/05/20 06:53:09;;;;;;;;;;;;;;;15.60;97.69;101135.13;5004146;28;19924;-83
2023/05/20 06:55:39;;;;;;;;;;;;;;;15.64;98.74;101136.50;5012905;28;19925;-81
2023/05/20 06:58:06;;;;;;;;;;;;;;;15.63;97.50;101145.50;5010589;28;20362;-81
2023/05/20 07:00:33;;;;;;;;;;;;;;;15.62;97.43;101148.38;5006868;28;19925;-82
2023/05/20 07:03:00;;;;;;;;;;;;;;;15.64;96.28;101135.66;5001441;28;20375;-82
2023/05/20 07:05:27;;;;;;;;;;;;;;;15.64;96.48;101146.38;5008553;28;20330;-82
2023/05/20 07:07:54;;;;;;;;;;;;;;;15.33;97.29;101091.44;4990035;28;20007;-81
2023/05/20 07:10:21;;;;;;;;;;;;;;;15.65;97.76;101134.66;4994132;28;19947;-82
2023/05/20 07:12:47;;;;;;;;;;;;;;;15.66;98.62;101141.72;5014721;28;19994;-81
2023/05/20 07:15:18;;;;;;;;;;;;;;;15.37;97.86;101083.97;5009280;28;19925;-84
2023/05/20 07:17:45;;;;;;;;;;;;;;;15.68;97.37;101129.00;5004122;28;19936;-85
2023/05/20 07:20:13;;;;;;;;;;;;;;;15.33;97.32;101086.09;5002268;28;20378;-85
2023/05/20 07:22:40;;;;;;;;;;;;;;;15.66;96.83;101122.97;5010262;28;19924;-85
2023/05/20 07:25:07;;;;;;;;;;;;;;;15.69;97.53;101120.81;5010018;28;19928;-84
2023/05/20 07:27:41;;;;;;;;;;;;;;;15.73;96.99;101113.34;5003655;28;19932;-83
2023/05/20 07:30:14;;;;;;;;;;;;;;;15.75;96.55;101116.69;4964156;28;19937;-85
2023/05/20 07:32:43;;;;;;;;;;;;;;;15.74;97.27;101109.66;4978679;28;19989;-85
2023/05/20 07:35:09;;;;;;;;;;;;;;;15.73;97.97;101108.00;5004662;28;20382;-85
2023/05/20 07:37:39;;;;;;;;;;;;;;;15.75;97.78;101104.16;5005344;28;20157;-85
2023/05/20 07:40:07;;;;;;;;;;;;;;;15.74;98.17;101099.78;4997715;28;20289;-85
2023/05/20 07:42:34;;;;;;;;;;;;;;;15.80;97.47;101088.47;5019464;28;20047;-85
2023/05/20 07:45:03;;;;;;;;;;;;;;;15.49;96.89;101039.06;5004466;28;19990;-83
2023/05/20 07:47:33;;;;;;;;;;;;;;;15.83;96.68;101103.38;5013612;28;19925;-84
2023/05/20 07:50:00;;;;;;;;;;;;;;;15.84;96.21;101098.84;4975264;28;19933;-85
2023/05/20 07:52:27;;;;;;;;;;;;;;;15.84;96.54;101096.19;4971006;28;20251;-84
2023/05/20 07:54:53;;;;;;;;;;;;;;;15.82;96.90;101090.97;4981491;28;19932;-83
2023/05/20 07:57:20;;;;;;;;;;;;;;;15.83;97.17;101095.34;4992222;28;19937;-82
2023/05/20 07:59:49;;;;;;;;;;;;;;;15.84;96.72;101088.16;4987783;28;19929;-83
2023/05/20 08:02:16;;;;;;;;;;;;;;;15.87;96.99;101077.94;4985518;28;20028;-82
2023/05/20 08:04:43;;;;;;;;;;;;;;;15.87;96.49;101088.66;4973266;28;19945;-83
2023/05/20 08:07:09;;;;;;;;;;;;;;;15.88;96.44;101079.63;4984921;28;20036;-83
2023/05/20 08:09:36;;;;;;;;;;;;;;;15.90;95.64;101072.28;4984524;28;19929;-84
2023/05/20 08:12:04;;;;;;;;;;;;;;;15.91;95.24;101067.78;4975346;28;19972;-83
2023/05/20 08:14:31;;;;;;;;;;;;;;;15.91;96.27;101063.25;4968655;28;19984;-82
2023/05/20 08:16:58;;;;;;;;;;;;;;;15.99;96.62;101060.59;4975315;28;19941;-85
2023/05/20 08:19:25;;;;;;;;;;;;;;;16.00;95.86;101072.16;4975943;28;20234;-83
2023/05/20 08:21:52;;;;;;;;;;;;;;;16.00;96.22;101073.00;4966523;28;19929;-82
2023/05/20 08:24:24;;;;;;;;;;;;;;;16.03;95.17;101063.81;4978260;28;19925;-83
2023/05/20 08:26:52;;;;;;;;;;;;;;;16.02;94.55;101067.50;4979364;28;19925;-83
2023/05/20 08:29:19;;;;;;;;;;;;;;;16.07;94.41;101066.97;4975999;28;19925;-83
2023/05/20 08:31:46;;;;;;;;;;;;;;;16.03;95.42;101067.31;4992145;28;20347;-82
2023/05/20 08:34:12;;;;;;;;;;;;;;;16.07;94.29;101075.03;4995530;28;19929;-84
2023/05/20 08:36:39;;;;;;;;;;;;;;;16.08;94.24;101074.03;5001106;28;20012;-83
2023/05/20 08:39:08;;;;;;;;;;;;;;;16.03;93.80;101070.00;4980753;28;20024;-85
2023/05/20 08:41:37;;;;;;;;;;;;;;;16.11;93.95;101073.72;5006990;28;20183;-84
2023/05/20 08:44:10;;;;;;;;;;;;;;;15.85;93.83;101021.06;5007380;28;20042;-84
2023/05/20 08:46:41;;;;;;;;;;;;;;;16.14;94.03;101073.38;5007751;28;20195;-84
2023/05/20 08:49:08;;;;;;;;;;;;;;;16.16;93.74;101066.03;4995112;28;20652;-83
2023/05/20 08:51:36;;;;;;;;;;;;;;;15.85;94.94;101021.06;4988566;28;19925;-84
2023/05/20 08:54:02;;;;;;;;;;;;;;;16.11;96.32;101073.72;4990397;28;20442;-83
2023/05/20 08:56:30;;;;;;;;;;;;;;;16.12;96.48;101073.56;4986329;28;19925;-79
2023/05/20 08:58:57;;;;;;;;;;;;;;;16.20;95.58;101078.94;4992143;28;20327;-82
2023/05/20 09:01:27;;;;;;;;;;;;;;;16.20;94.95;101070.06;4973241;28;19925;-82
2023/05/20 09:03:56;;;;;;;;;;;;;;;16.16;95.89;101060.66;4997707;28;19932;-81
2023/05/20 09:06:24;;;;;;;;;;;;;;;16.24;95.12;101066.91;5022806;28;20184;-81
2023/05/20 09:08:51;;;;;;;;;;;;;;;16.24;95.37;101063.41;4991785;28;19929;-82
2023/05/20 09:11:19;;;;;;;;;;;;;;;16.27;95.76;101064.91;4995493;28;19928;-83
2023/05/20 09:13:45;;;;;;;;;;;;;;;16.26;95.16;101061.38;5018081;28;20015;-82
2023/05/20 09:16:18;;;;;;;;;;;;;;;16.29;95.89;101054.84;4984595;28;19929;-82
2023/05/20 09:18:45;;;;;;;;;;;;;;;16.31;96.90;101069.78;4997541;28;20379;-83
2023/05/20 09:21:12;;;;;;;;;;;;;;;16.37;96.27;101063.75;4992634;28;20374;-82
2023/05/20 09:23:38;;;;;;;;;;;;;;;16.35;96.38;101059.56;4997215;28;19925;-85
2023/05/20 09:26:05;;;;;;;;;;;;;;;16.37;96.00;101058.41;5010327;28;20019;-84
2023/05/20 09:28:37;;;;;;;;;;;;;;;16.45;94.98;101066.44;4973571;28;19925;-83
2023/05/20 09:31:04;;;;;;;;;;;;;;;16.36;95.19;101062.09;4995206;28;20269;-84
2023/05/20 09:33:31;;;;;;;;;;;;;;;16.41;94.50;101059.75;4985647;28;19924;-83
2023/05/20 09:36:03;;;;;;;;;;;;;;;16.37;95.78;101058.41;4999061;28;19925;-83
2023/05/20 09:38:36;;;;;;;;;;;;;;;16.38;96.57;101056.56;4989776;28;19932;-83
2023/05/20 09:41:06;;;;;;;;;;;;;;;16.41;95.05;101054.41;5028393;28;20100;-82
2023/05/20 09:43:35;;;;;;;;;;;;;;;16.41;94.79;101058.94;5025120;28;19924;-83
2023/05/20 09:46:03;;;;;;;;;;;;;;;16.49;94.36;101061.63;5022229;28;19932;-84
2023/05/20 09:48:30;;;;;;;;;;;;;;;16.45;94.73;101074.50;5009420;28;20563;-81
2023/05/20 09:51:00;;;;;;;;;;;;;;;16.41;94.39;101073.16;5010105;28;20310;-83
2023/05/20 09:53:27;;;;;;;;;;;;;;;16.38;95.88;101068.13;4991150;28;19975;-85
2023/05/20 09:55:54;;;;;;;;;;;;;;;16.44;95.99;101072.81;4999901;28;19925;-84
2023/05/20 09:58:24;;;;;;;;;;;;;;;16.18;94.72;101021.16;4994818;28;19931;-83
2023/05/20 10:00:50;;;;;;;;;;;;;;;16.44;95.01;101067.47;4988198;28;19933;-82
2023/05/20 10:03:20;;;;;;;;;;;;;;;16.48;94.24;101053.72;4989922;28;19929;-80
2023/05/20 10:06:16;;;;;;;;;;;;;;;16.41;93.96;101048.22;5004372;28;20362;-83
2023/05/20 10:08:54;;;;;;;;;;;;;;;16.48;94.69;101048.38;5003294;28;20471;-84
2023/05/20 10:11:28;;;;;;;;;;;;;;;16.53;96.39;101044.22;5011526;28;20140;-82
2023/05/20 10:14:17;;;;;;;;;;;;;;;16.65;95.54;101044.72;5004246;28;19955;-83
2023/05/20 10:16:52;;;;;;;;;;;;;;;16.69;93.99;101051.44;4997903;28;20047;-83
2023/05/20 10:19:19;;;;;;;;;;;;;;;16.71;94.21;101053.97;4996768;28;20270;-82
2023/05/20 10:21:55;;;;;;;;;;;;;;;16.61;93.85;101049.59;5008429;28;19967;-83
2023/05/20 10:24:31;;;;;;;;;;;;;;;16.63;95.00;101041.38;5005350;28;19968;-84
2023/05/20 10:26:59;;;;;;;;;;;;;;;16.63;94.80;101046.75;5011738;28;20002;-83
2023/05/20 10:29:26;;;;;;;;;;;;;;;16.66;94.04;101046.41;4987558;28;20313;-83
2023/05/20 10:31:53;;;;;;;;;;;;;;;16.64;94.40;101045.72;4999795;28;19999;-84
2023/05/20 10:34:21;;;;;;;;;;;;;;;16.70;94.13;101053.13;5027961;28;19928;-83
2023/05/20 10:36:54;;;;;;;;;;;;;;;16.69;94.04;101058.63;4993841;28;19924;-83
2023/05/20 10:39:28;;;;;;;;;;;;;;;16.70;94.58;101057.63;4998697;28;20462;-83
2023/05/20 10:42:25;;;;;;;;;;;;;;;16.71;93.71;101054.78;5011370;28;20018;-83
2023/05/20 10:44:53;;;;;;;;;;;;;;;16.64;93.52;101054.59;5002049;28;19928;-84
2023/05/20 10:47:20;;;;;;;;;;;;;;;16.64;94.70;101059.13;5015085;28;20011;-84
2023/05/20 10:49:51;;;;;;;;;;;;;;;16.61;94.80;101044.22;5013941;28;20150;-83
2023/05/20 10:52:21;;;;;;;;;;;;;;;16.65;93.95;101039.34;4984747;28;20442;-84
2023/05/20 10:54:53;;;;;;;;;;;;;;;16.70;93.71;101031.69;5004266;28;19929;-83
2023/05/20 10:57:20;;;;;;;;;;;;;;;16.69;93.68;101032.66;5001653;28;20035;-84
2023/05/20 10:59:50;;;;;;;;;;;;;;;16.68;94.32;101033.69;4997463;28;19925;-84
2023/05/20 11:02:17;;;;;;;;;;;;;;;16.66;95.40;101027.66;4993082;28;19925;-82
2023/05/20 11:04:47;;;;;;;;;;;;;;;16.38;95.06;100986.88;4998413;28;20413;-82
2023/05/20 11:07:27;;;;;;;;;;;;;;;16.69;94.89;101029.97;5001090;28;20208;-83
2023/05/20 11:09:57;;;;;;;;;;;;;;;16.67;94.35;101043.56;5001049;28;19929;-83
2023/05/20 11:12:24;;;;;;;;;;;;;;;16.70;95.75;101033.50;5024655;28;19924;-84
2023/05/20 11:14:51;;;;;;;;;;;;;;;16.73;95.02;101027.81;5023263;28;19971;-83
2023/05/20 11:17:18;;;;;;;;;;;;;;;16.78;95.91;101023.66;5026342;28;20287;-83
2023/05/20 11:19:46;;;;;;;;;;;;;;;16.81;96.36;101023.31;5028612;28;20412;-82
2023/05/20 11:22:12;;;;;;;;;;;;;;;16.85;95.61;101023.84;5015489;28;19952;-85
2023/05/20 11:24:39;;;;;;;;;;;;;;;16.82;95.67;101029.50;5011164;28;20322;-83
2023/05/20 11:27:06;;;;;;;;;;;;;;;16.86;95.79;101034.38;5025449;28;19951;-83
2023/05/20 11:29:34;;;;;;;;;;;;;;;16.92;96.03;101032.03;5009348;28;19987;-86
2023/05/20 11:32:00;;;;;;;;;;;;;;;16.98;96.23;101031.38;5018300;28;19928;-83
2023/05/20 11:34:33;;;;;;;;;;;;;;;17.01;95.97;101028.34;5000127;28;20014;-84
2023/05/20 11:37:05;;;;;;;;;;;;;;;17.04;97.49;101025.34;5004373;28;19939;-84
2023/05/20 11:39:32;;;;;;;;;;;;;;;17.06;96.63;101023.31;5003247;28;20377;-85
2023/05/20 11:41:59;;;;;;;;;;;;;;;17.09;97.40;101023.00;5024795;28;20243;-84
2023/05/20 11:44:26;;;;;;;;;;;;;;;17.20;96.78;101021.81;5020756;28;20035;-84
2023/05/20 11:46:58;;;;;;;;;;;;;;;17.21;95.42;101026.16;5028614;28;19928;-84
2023/05/20 11:49:25;;;;;;;;;;;;;;;17.29;94.65;101021.63;5015381;28;20310;-84
2023/05/20 11:51:52;;;;;;;;;;;;;;;17.30;95.43;101012.56;4984426;28;19952;-82
2023/05/20 11:54:20;;;;;;;;;;;;;;;17.28;96.66;101003.88;4996393;28;19933;-85
2023/05/20 11:56:47;;;;;;;;;;;;;;;17.32;95.72;101008.88;5005386;28;19925;-84
2023/05/20 11:59:14;;;;;;;;;;;;;;;17.35;95.48;101005.84;5003775;28;19936;-83
2023/05/20 12:01:44;;;;;;;;;;;;;;;17.29;95.36;101018.09;5005478;28;20017;-84
2023/05/20 12:04:15;;;;;;;;;;;;;;;17.30;95.04;101025.13;5006555;28;19942;-83
2023/05/20 12:06:42;;;;;;;;;;;;;;;17.28;95.53;101024.47;5003281;28;19928;-85
2023/05/20 12:09:12;;;;;;;;;;;;;;;16.98;96.25;100988.47;4996469;28;20287;-83
2023/05/20 12:11:40;;;;;;;;;;;;;;;17.23;95.42;101038.41;5002141;28;19929;-84
2023/05/20 12:14:07;;;;;;;;;;;;;;;17.22;95.55;101031.34;5008975;28;19924;-85
2023/05/20 12:16:34;;;;;;;;;;;;;;;17.25;96.00;101031.00;5008827;28;19975;-85
2023/05/20 12:19:01;;;;;;;;;;;;;;;17.28;96.86;101030.69;4998884;28;20467;-85
2023/05/20 12:21:28;;;;;;;;;;;;;;;17.29;96.83;101032.34;5007336;28;20349;-83
2023/05/20 12:24:04;;;;;;;;;;;;;;;17.33;96.78;101029.31;4987914;28;19936;-84
2023/05/20 12:26:34;;;;;;;;;;;;;;;17.37;98.47;101033.34;4995424;28;19924;-84
2023/05/20 12:29:01;;;;;;;;;;;;;;;17.40;99.06;101023.09;4991163;28;20437;-83
2023/05/20 12:31:28;;;;;;;;;;;;;;;17.43;98.69;101032.69;5002305;28;20452;-84
2023/05/20 12:34:01;;;;;;;;;;;;;;;17.07;98.49;100974.03;4994129;28;20039;-83
2023/05/20 12:36:32;;;;;;;;;;;;;;;17.52;99.16;101023.59;4968677;28;20017;-84
2023/05/20 12:39:03;;;;;;;;;;;;;;;17.56;99.45;101013.34;4994175;28;20348;-83
2023/05/20 12:41:32;;;;;;;;;;;;;;;17.57;98.11;101034.63;5023304;28;20018;-83
2023/05/20 12:44:00;;;;;;;;;;;;;;;17.62;98.71;101028.75;5011597;28;19929;-83